Aviation Digital Data Service (ADDS)

Output produced by METARs form (1812 UTC 14 August 2018)
found at http://www.aviationweather.gov/adds/metars/
 
KOAJ 141739Z 1418/1518 19005KT P6SM VCTS SCT035CB 
     FM150000 VRB02KT P6SM FEW060 FEW250 
     FM151400 25003KT P6SM SKC AMD LTD TO CLD VIS AND WIND
       
KOAK 141720Z 1418/1524 28008KT 6SM BR OVC011 
     FM141930 27010KT P6SM SCT011 
     FM142100 29013KT P6SM FEW200 
     FM150200 29010KT P6SM BKN013 
     FM150500 29008KT P6SM OVC010 
     FM151000 28007KT P6SM OVC008 
     FM151900 29008KT P6SM SCT010
       
TAF KOFF 141000Z 1410/1516 13006KT 9999 FEW030 QNH2990INS 
     BECMG 1411/1412 20009KT 9000 -SHRA SCT010 BKN060 OVC100 QNH2988INS 
     BECMG 1503/1504 10006KT 9999 NSW FEW030 BKN080 QNH2988INS 
     BECMG 1511/1512 35006KT 9999 FEW030 QNH2989INS TX27/1420Z TN20/1411Z
       
KOFK 141722Z 1418/1518 02007KT P6SM OVC100 
     FM142000 12005KT P6SM VCSH OVC100 
     FM150400 10005KT P6SM BKN200
       
KOGB 141730Z 1418/1518 23007KT P6SM SCT060 
     FM150200 VRB03KT P6SM SKC 
     FM150800 00000KT 4SM BR SKC 
     FM151400 VRB04KT P6SM FEW050
       
KOGD 141739Z 1418/1518 29008KT P6SM SCT120 SCT200 
     FM150300 17006KT P6SM FEW120 SCT200 
     FM151700 31007KT P6SM SCT120
       
KOKC 141736Z 1418/1518 20013KT P6SM SCT025 BKN250 
     TEMPO 1418/1421 BKN025 
     FM150300 17010KT P6SM VCSH BKN040 
     TEMPO 1504/1508 3SM TSRA BKN012CB 
     FM151400 28010KT P6SM BKN025
       
KOLF 141720Z 1418/1518 VRB05KT P6SM SKC
       
KOLM 141720Z 1418/1518 03004KT 3SM HZ FU SCT045 
     FM142100 01006KT P6SM SCT060 
     FM150300 VRB03KT P6SM SKC
       
KOLS 141725Z 1418/1518 VRB04KT P6SM SCT150 
     FM142000 29007KT P6SM VCTS SCT080CB 
     TEMPO 1422/1424 4SM -TSRA BR BKN040CB 
     FM150000 24006KT P6SM -SHRA BKN080 
     FM150600 15004KT P6SM BKN080
       
KOMA 141722Z 1418/1518 14005KT P6SM -SHRA OVC090 
     TEMPO 1418/1422 4SM -SHRA OVC060 
     FM142300 06005KT P6SM VCSH OVC070 
     FM150900 VRB04KT P6SM BKN050 
     FM151200 36005KT P6SM SCT050
       
KONP 141724Z 1417/1518 24005KT 6SM BR OVC004 
     FM141830 24005KT 6SM BR SCT004 
     FM142100 31009KT 6SM FU SCT040 
     FM150400 23002KT 1/2SM FG OVC002
       
KONT 141724Z 1418/1524 VRB04KT P6SM SKC 
     FM142000 26012G18KT P6SM FEW100 
     FM150600 26005KT P6SM SKC 
     FM152000 26012G18KT P6SM FEW100
       
KOPF 141720Z 1418/1518 12010KT P6SM VCTS SCT040CB SCT250 
     FM142000 11010KT P6SM SCT025 SCT045 SCT250 
     FM150100 VRB03KT P6SM SCT030 SCT250 
     FM151400 12010KT P6SM SCT250
       
KORD 141747Z 1418/1524 24005KT P6SM SCT050 SCT250 
     FM142300 09007KT P6SM SCT250 
     FM150100 VRB03KT P6SM SCT040 BKN250 
     FM150900 21004KT P6SM VCSH SCT040 BKN250 
     FM151400 17010KT 6SM SHRA BKN040 
     PROB30 1515/1521 4SM -TSRA OVC025CB 
     FM152100 15007KT P6SM -SHRA BKN040
       
KORF 141741Z 1418/1518 22008KT P6SM FEW050 
     FM150000 24005KT P6SM SCT080 
     FM151400 31007KT P6SM SKC
       
KORH 141740Z 1418/1518 26011G22KT P6SM -TSRA BKN030CB 
     FM141900 19006KT P6SM VCSH BKN040 
     FM150800 VRB03KT P6SM BKN030 
     FM151000 VRB03KT P6SM BKN010
       
KOTH 141721Z 1418/1518 30005KT P6SM OVC008 
     FM142000 30007KT P6SM BKN012 
     FM142100 31011KT P6SM SCT012 
     FM150100 30007KT P6SM BKN008 
     FM150600 27003KT 4SM BR OVC004
       
KOTM 141737Z 1418/1518 17007KT P6SM SCT150 BKN200 
     FM142000 14007KT P6SM VCSH SCT060 BKN120 
     FM150000 13006KT 6SM -SHRA OVC070 
     FM150800 10005KT 6SM -SHRA OVC015 
     FM151200 09004KT P6SM OVC010
       
KOUN 141736Z 1418/1518 19012KT P6SM SCT025 BKN250 
     TEMPO 1418/1419 4SM -SHRA BKN025 
     FM150300 17010KT P6SM VCSH BKN040 
     TEMPO 1504/1508 3SM TSRA BKN012CB 
     FM151400 28010KT P6SM BKN025
       
KOWB 141720Z 1418/1518 VRB03KT P6SM FEW035 SCT250 
     FM150000 VRB04KT P6SM SCT040 BKN200 
     FM150500 VRB04KT P6SM BKN130 
     FM151500 17006KT P6SM VCSH BKN080
       
KOXR 141742Z 1418/1518 24006KT P6SM SCT014 
     FM142000 26012KT P6SM SKC 
     FM150300 26006KT P6SM BKN010 
     FM150600 VRB03KT P6SM OVC006 
     FM151100 VRB03KT P6SM OVC010 
     FM151600 24006KT P6SM SCT010
       
TAF AMD KOZR 141700Z 1417/1522 20006KT 9999 FEW030 FEW200 QNH3002INS 
     BECMG 1417/1418 24006KT 9000 -SHRA VCTS SCT040CB QNH2999INS 
     TEMPO 1419/1502 25015G20KT 4800 -TSRA BKN020CB 
     BECMG 1501/1502 22006KT 9999 NSW BKN040 QNH2995INS 
     BECMG 1515/1516 VRB06KT 8000 -SHRA SCT024 QNH3006INS 
     TEMPO 1518/1522 22010G20KT 4800 -TSRA BKN020CB TX34/1420Z TN22/1511Z